Time;durP1;ratioP1;P1;durP2;ratioP2;P2;SDS_P1;SDS_P2;PMS_P1;PMS_P2;Temp;Humidity;BMP_temperature;BMP_pressure;BME280_temperature;BME280_humidity;BME280_pressure;Samples;Min_cycle;Max_cycle;Signal;HPM_P1;HPM_P2
2022/06/21 00:00:39;;;;;;;;;;;;;;;20.93;55.07;99176.69;3109792;28;20067;-62
2022/06/21 00:02:12;;;;;;;;;;;;;;;20.90;55.39;99179.63;3109968;28;19925;-63
2022/06/21 00:03:46;;;;;;;;;;;;;;;20.89;55.29;99180.63;3119778;28;20449;-63
2022/06/21 00:05:20;;;;;;;;;;;;;;;20.88;55.26;99181.59;3134442;28;19921;-63
2022/06/21 00:06:52;;;;;;;;;;;;;;;20.87;55.22;99182.59;3129290;28;19927;-63
2022/06/21 00:08:25;;;;;;;;;;;;;;;20.87;55.51;99182.59;3134607;28;19924;-62
2022/06/21 00:09:58;;;;;;;;;;;;;;;20.83;55.63;99187.34;3134213;28;19921;-62
2022/06/21 00:11:31;;;;;;;;;;;;;;;20.82;55.60;99188.34;3134131;28;20345;-62
2022/06/21 00:13:03;;;;;;;;;;;;;;;20.80;55.61;99198.25;3134270;28;19973;-62
2022/06/21 00:14:34;;;;;;;;;;;;;;;20.79;55.58;99195.72;3133934;28;19925;-64
2022/06/21 00:16:07;;;;;;;;;;;;;;;20.77;55.90;99192.41;3134883;28;19921;-64
2022/06/21 00:17:39;;;;;;;;;;;;;;;20.76;55.76;99188.09;3134119;28;20374;-62
2022/06/21 00:19:16;;;;;;;;;;;;;;;20.75;55.56;99189.09;3132483;28;19931;-63
2022/06/21 00:20:48;;;;;;;;;;;;;;;20.75;55.86;99195.19;3134475;28;20423;-63
2022/06/21 00:22:20;;;;;;;;;;;;;;;20.71;56.04;99190.38;3134045;28;19943;-63
2022/06/21 00:23:52;;;;;;;;;;;;;;;20.61;56.47;99183.31;3134345;28;19964;-63
2022/06/21 00:25:25;;;;;;;;;;;;;;;20.56;56.67;99187.41;3134361;28;19990;-62
2022/06/21 00:26:57;;;;;;;;;;;;;;;20.49;56.88;99176.53;3128925;28;19921;-62
2022/06/21 00:28:28;;;;;;;;;;;;;;;20.40;57.47;99180.06;3134053;28;19982;-62
2022/06/21 00:30:00;;;;;;;;;;;;;;;20.32;57.62;99178.16;3134242;28;20386;-62
2022/06/21 00:31:32;;;;;;;;;;;;;;;20.27;57.80;99188.34;3133839;28;19924;-62
2022/06/21 00:33:03;;;;;;;;;;;;;;;20.19;58.09;99186.41;3133496;28;19994;-62
2022/06/21 00:34:36;;;;;;;;;;;;;;;20.18;57.95;99187.41;3133981;28;20467;-62
2022/06/21 00:36:13;;;;;;;;;;;;;;;20.20;57.95;99188.09;3131878;28;19947;-63
2022/06/21 00:37:44;;;;;;;;;;;;;;;20.17;58.12;99191.03;3132205;28;19924;-63
2022/06/21 00:39:17;;;;;;;;;;;;;;;20.17;57.99;99180.47;3133635;28;19921;-63
2022/06/21 00:40:48;;;;;;;;;;;;;;;20.14;58.27;99179.88;3133953;28;19986;-63
2022/06/21 00:42:23;;;;;;;;;;;;;;;20.09;58.57;99177.69;3133790;28;19921;-63
2022/06/21 00:43:55;;;;;;;;;;;;;;;20.05;58.69;99175.47;3134360;28;19921;-63
2022/06/21 00:45:29;;;;;;;;;;;;;;;20.00;58.38;99174.13;3134303;28;19921;-63
2022/06/21 00:47:03;;;;;;;;;;;;;;;19.97;59.07;99169.13;3134169;28;19982;-64
2022/06/21 00:48:36;;;;;;;;;;;;;;;19.87;59.42;99170.94;3133822;28;19932;-63
2022/06/21 00:50:17;;;;;;;;;;;;;;;19.77;59.95;99165.69;3133926;28;20433;-63
2022/06/21 00:51:50;;;;;;;;;;;;;;;19.63;60.23;99155.56;3134134;28;19924;-64
2022/06/21 00:53:23;;;;;;;;;;;;;;;19.63;60.05;99152.91;3133485;28;19925;-64
2022/06/21 00:54:58;;;;;;;;;;;;;;;19.61;60.43;99156.66;3133669;28;19931;-64
2022/06/21 00:56:33;;;;;;;;;;;;;;;19.56;60.19;99165.03;3133898;28;19928;-63
2022/06/21 00:58:06;;;;;;;;;;;;;;;19.54;60.84;99159.88;3134024;28;19947;-63
2022/06/21 00:59:38;;;;;;;;;;;;;;;19.52;60.83;99158.34;3133746;28;19943;-63
2022/06/21 01:01:15;;;;;;;;;;;;;;;19.50;60.51;99158.50;3133679;28;19932;-63
2022/06/21 01:02:46;;;;;;;;;;;;;;;19.48;60.98;99156.97;3128144;28;20408;-63
2022/06/21 01:04:20;;;;;;;;;;;;;;;19.46;61.21;99154.50;3133846;28;20393;-63
2022/06/21 01:05:54;;;;;;;;;;;;;;;19.42;61.21;99152.25;3134050;28;20266;-63
2022/06/21 01:07:25;;;;;;;;;;;;;;;19.38;60.94;99150.91;3133639;28;19944;-63
2022/06/21 01:09:00;;;;;;;;;;;;;;;19.36;60.93;99153.66;3133847;28;20320;-63
2022/06/21 01:10:31;;;;;;;;;;;;;;;19.31;61.07;99146.19;3133538;28;19928;-63
2022/06/21 01:12:07;;;;;;;;;;;;;;;19.26;61.28;99137.84;3133685;28;20000;-63
2022/06/21 01:13:42;;;;;;;;;;;;;;;19.25;61.03;99137.97;3133852;28;20449;-63
2022/06/21 01:15:16;;;;;;;;;;;;;;;19.26;60.98;99148.41;3133860;28;19932;-63
2022/06/21 01:16:46;;;;;;;;;;;;;;;19.28;61.18;99146.44;3133836;28;20534;-63
2022/06/21 01:18:21;;;;;;;;;;;;;;;19.30;61.24;99151.59;3126836;28;19924;-63
2022/06/21 01:19:56;;;;;;;;;;;;;;;19.32;61.25;99147.84;3133731;28;19927;-62
2022/06/21 01:21:30;;;;;;;;;;;;;;;19.35;60.71;99146.72;3133579;28;19971;-62
2022/06/21 01:23:07;;;;;;;;;;;;;;;19.38;61.47;99151.72;3133579;28;19924;-62
2022/06/21 01:24:44;;;;;;;;;;;;;;;19.37;61.77;99146.56;3133578;28;19925;-61
2022/06/21 01:26:20;;;;;;;;;;;;;;;19.33;62.02;99144.22;3129915;28;19925;-61
2022/06/21 01:27:55;;;;;;;;;;;;;;;19.37;61.46;99147.41;3131510;28;19932;-61
2022/06/21 01:29:27;;;;;;;;;;;;;;;19.38;61.74;99146.44;3133847;28;19925;-61
2022/06/21 01:31:00;;;;;;;;;;;;;;;19.38;62.63;99151.72;3133773;28;19921;-62
2022/06/21 01:32:32;;;;;;;;;;;;;;;19.33;63.01;99152.13;3133544;28;20020;-62
2022/06/21 01:34:03;;;;;;;;;;;;;;;19.30;63.16;99149.78;3133598;28;19929;-63
2022/06/21 01:35:36;;;;;;;;;;;;;;;19.28;63.27;99149.06;3133498;28;19936;-62
2022/06/21 01:37:09;;;;;;;;;;;;;;;19.28;62.75;99146.44;3133293;28;19971;-62
2022/06/21 01:38:44;;;;;;;;;;;;;;;19.29;62.56;99148.13;3133387;28;19920;-62
2022/06/21 01:40:18;;;;;;;;;;;;;;;19.31;62.53;99140.03;3133338;28;19920;-62
2022/06/21 01:41:52;;;;;;;;;;;;;;;19.29;62.93;99142.84;3133250;28;20413;-62
2022/06/21 01:43:27;;;;;;;;;;;;;;;19.22;63.75;99147.00;3133247;28;20321;-63
2022/06/21 01:45:03;;;;;;;;;;;;;;;19.17;64.13;99137.84;3132673;28;20019;-62
2022/06/21 01:46:35;;;;;;;;;;;;;;;19.14;63.94;99140.75;3132836;28;20463;-62
2022/06/21 01:48:10;;;;;;;;;;;;;;;19.10;63.57;99130.47;3133371;28;20317;-62
2022/06/21 01:49:43;;;;;;;;;;;;;;;19.14;63.35;99135.47;3133293;28;20365;-62
2022/06/21 01:51:18;;;;;;;;;;;;;;;19.12;63.77;99130.34;3130352;28;20267;-63
2022/06/21 01:52:51;;;;;;;;;;;;;;;19.12;63.25;99129.53;3127511;28;19921;-63
2022/06/21 01:54:23;;;;;;;;;;;;;;;19.11;63.27;99136.59;3133238;28;19921;-63
2022/06/21 01:55:56;;;;;;;;;;;;;;;19.12;62.87;99135.63;3133469;28;20026;-63
2022/06/21 01:57:29;;;;;;;;;;;;;;;19.10;62.93;99138.38;3133180;28;20294;-63
2022/06/21 01:59:05;;;;;;;;;;;;;;;19.07;62.92;99129.94;3133603;28;19924;-63
2022/06/21 02:00:40;;;;;;;;;;;;;;;19.07;63.13;99127.28;3133379;28;19924;-63
2022/06/21 02:02:13;;;;;;;;;;;;;;;19.05;62.88;99123.97;3133086;28;20069;-63
2022/06/21 02:03:47;;;;;;;;;;;;;;;19.01;62.67;99122.56;3132862;28;20450;-63
2022/06/21 02:05:21;;;;;;;;;;;;;;;18.98;63.02;99115.75;3133492;28;19924;-63
2022/06/21 02:06:54;;;;;;;;;;;;;;;18.92;62.97;99123.41;3132980;28;20389;-63
2022/06/21 02:08:29;;;;;;;;;;;;;;;18.90;62.94;99120.06;3126874;28;19921;-63
2022/06/21 02:10:04;;;;;;;;;;;;;;;18.87;63.20;99123.81;3133393;28;20327;-63
2022/06/21 02:11:39;;;;;;;;;;;;;;;18.82;63.33;99123.41;3133072;28;19920;-63
2022/06/21 02:13:13;;;;;;;;;;;;;;;18.77;63.50;99117.72;3133131;28;19928;-63
2022/06/21 02:14:48;;;;;;;;;;;;;;;18.74;63.32;99124.09;3133399;28;20448;-63
2022/06/21 02:16:21;;;;;;;;;;;;;;;18.74;63.25;99125.91;3133529;28;19985;-63
2022/06/21 02:17:54;;;;;;;;;;;;;;;18.73;63.14;99122.44;3133670;28;20757;-63
2022/06/21 02:19:26;;;;;;;;;;;;;;;18.72;63.03;99125.16;3129107;28;20007;-63
2022/06/21 02:21:02;;;;;;;;;;;;;;;18.72;63.09;99122.53;3132851;28;19932;-63
2022/06/21 02:22:35;;;;;;;;;;;;;;;18.73;62.79;99121.56;3132805;28;20397;-63
2022/06/21 02:24:07;;;;;;;;;;;;;;;18.75;62.49;99127.56;3132651;28;19921;-63
2022/06/21 02:25:40;;;;;;;;;;;;;;;18.77;62.52;99133.53;3128237;28;19936;-64
2022/06/21 02:27:13;;;;;;;;;;;;;;;18.79;62.15;99137.72;3128840;28;19927;-63
2022/06/21 02:28:45;;;;;;;;;;;;;;;18.80;61.78;99128.81;3132833;28;20314;-63
2022/06/21 02:30:20;;;;;;;;;;;;;;;18.82;61.81;99133.97;3133015;28;20378;-63
2022/06/21 02:31:52;;;;;;;;;;;;;;;18.79;62.04;99132.44;3130518;28;19920;-63
2022/06/21 02:33:25;;;;;;;;;;;;;;;18.79;61.66;99136.88;3132624;28;19994;-63
2022/06/21 02:34:58;;;;;;;;;;;;;;;18.81;61.41;99141.06;3132809;28;20550;-63
2022/06/21 02:36:31;;;;;;;;;;;;;;;18.78;61.60;99138.69;3133016;28;19921;-63
2022/06/21 02:38:05;;;;;;;;;;;;;;;18.78;61.44;99143.97;3133182;28;19924;-63
2022/06/21 02:39:37;;;;;;;;;;;;;;;18.78;61.42;99143.09;3123621;28;20059;-63
2022/06/21 02:41:10;;;;;;;;;;;;;;;18.76;61.38;99145.06;3132756;28;19978;-63
2022/06/21 02:42:43;;;;;;;;;;;;;;;18.76;61.30;99150.34;3132915;28;20274;-63
2022/06/21 02:44:17;;;;;;;;;;;;;;;18.79;60.90;99152.72;3132982;28;19928;-63
2022/06/21 02:45:53;;;;;;;;;;;;;;;18.80;60.69;99154.38;3133516;28;20378;-62
2022/06/21 02:47:28;;;;;;;;;;;;;;;18.79;60.98;99150.06;3133505;28;19951;-63
2022/06/21 02:49:00;;;;;;;;;;;;;;;18.82;60.46;99149.78;3133445;28;20306;-63
2022/06/21 02:50:36;;;;;;;;;;;;;;;18.84;60.43;99138.13;3132185;28;19931;-63
2022/06/21 02:52:11;;;;;;;;;;;;;;;18.85;60.42;99145.06;3132915;28;19936;-63
2022/06/21 02:53:44;;;;;;;;;;;;;;;18.87;60.12;99144.91;3132026;28;20423;-63
2022/06/21 02:55:26;;;;;;;;;;;;;;;18.87;59.98;99142.28;3132757;28;20408;-63
2022/06/21 02:57:01;;;;;;;;;;;;;;;18.87;59.93;99142.28;3129926;28;19928;-64
2022/06/21 02:58:37;;;;;;;;;;;;;;;18.85;59.84;99139.78;3128701;28;20379;-64
2022/06/21 03:00:13;;;;;;;;;;;;;;;18.83;59.94;99140.91;3128050;28;19924;-64
2022/06/21 03:01:49;;;;;;;;;;;;;;;18.77;60.20;99133.53;3127559;28;19964;-63
2022/06/21 03:03:23;;;;;;;;;;;;;;;18.71;60.66;99134.88;3132367;28;19921;-63
2022/06/21 03:04:56;;;;;;;;;;;;;;;18.66;60.41;99131.81;3132634;28;19928;-63
2022/06/21 03:06:29;;;;;;;;;;;;;;;18.62;60.91;99143.63;3132492;28;19921;-64
2022/06/21 03:08:03;;;;;;;;;;;;;;;18.63;60.46;99140.00;3132814;28;19928;-64
2022/06/21 03:09:35;;;;;;;;;;;;;;;18.57;61.06;99138.75;3132581;28;20050;-64
2022/06/21 03:11:06;;;;;;;;;;;;;;;18.54;60.80;99135.56;3132699;28;19921;-64
2022/06/21 03:12:37;;;;;;;;;;;;;;;18.56;61.11;99134.44;3132679;28;20313;-64
2022/06/21 03:14:11;;;;;;;;;;;;;;;18.52;61.55;99135.69;3132783;28;19921;-63
2022/06/21 03:15:44;;;;;;;;;;;;;;;18.48;61.53;99141.38;3130243;28;19924;-63
2022/06/21 03:17:18;;;;;;;;;;;;;;;18.39;61.86;99143.00;3132544;28;19920;-64
2022/06/21 03:18:51;;;;;;;;;;;;;;;18.35;62.19;99139.00;3132562;28;19932;-64
2022/06/21 03:20:22;;;;;;;;;;;;;;;18.30;62.22;99135.91;3132512;28;19972;-64
2022/06/21 03:21:55;;;;;;;;;;;;;;;18.24;62.98;99137.28;3132747;28;19959;-64
2022/06/21 03:23:28;;;;;;;;;;;;;;;18.18;63.06;99138.66;3132416;28;19920;-64
2022/06/21 03:25:01;;;;;;;;;;;;;;;18.13;63.21;99135.59;3128157;28;19921;-65
2022/06/21 03:26:34;;;;;;;;;;;;;;;18.11;63.20;99134.91;3128843;28;19925;-64
2022/06/21 03:28:20;;;;;;;;;;;;;;;18.10;63.18;99132.38;3132556;28;19974;-64
2022/06/21 03:29:51;;;;;;;;;;;;;;;18.10;62.83;99122.69;3130422;28;19921;-64
2022/06/21 03:31:24;;;;;;;;;;;;;;;18.12;63.15;99130.47;3132380;28;20421;-64
2022/06/21 03:32:58;;;;;;;;;;;;;;;18.12;62.58;99130.47;3132774;28;19925;-63
2022/06/21 03:34:30;;;;;;;;;;;;;;;18.11;62.87;99121.72;3132717;28;19964;-64
2022/06/21 03:36:03;;;;;;;;;;;;;;;18.15;62.60;99120.47;3132409;28;19921;-64
2022/06/21 03:37:35;;;;;;;;;;;;;;;18.19;62.52;99115.78;3132350;28;19921;-63
2022/06/21 03:39:10;;;;;;;;;;;;;;;18.22;62.20;99105.00;3132169;28;20519;-63
2022/06/21 03:42:33;;;;;;;;;;;;;;;18.34;61.86;99095.16;3132426;28;19920;-63
2022/06/21 03:44:06;;;;;;;;;;;;;;;18.33;62.14;99098.75;3131964;28;19932;-63
2022/06/21 03:45:40;;;;;;;;;;;;;;;18.36;61.68;99093.19;3132291;28;20453;-63
2022/06/21 03:47:16;;;;;;;;;;;;;;;18.36;62.11;99096.66;3132718;28;20024;-63
2022/06/21 03:48:51;;;;;;;;;;;;;;;18.39;61.94;99091.13;3132263;28;19928;-62
2022/06/21 03:50:25;;;;;;;;;;;;;;;18.40;61.98;99087.53;3135170;28;20001;-63
2022/06/21 03:52:00;;;;;;;;;;;;;;;18.44;62.00;99084.63;3132670;28;19927;-63
2022/06/21 03:53:32;;;;;;;;;;;;;;;18.45;61.79;99084.47;3128790;28;19951;-63
2022/06/21 03:55:09;;;;;;;;;;;;;;;18.51;61.32;99080.47;3132331;28;19928;-63
2022/06/21 03:56:44;;;;;;;;;;;;;;;18.57;61.11;99083.38;3132240;28;19921;-63
2022/06/21 03:58:21;;;;;;;;;;;;;;;18.63;60.91;99080.22;3131886;28;19932;-63
2022/06/21 03:59:54;;;;;;;;;;;;;;;18.67;60.59;99072.84;3132649;28;19975;-63
2022/06/21 04:01:29;;;;;;;;;;;;;;;18.69;60.62;99076.16;3132257;28;19920;-63
2022/06/21 04:03:05;;;;;;;;;;;;;;;18.73;60.22;99077.59;3132380;28;19920;-63
2022/06/21 04:04:40;;;;;;;;;;;;;;;18.77;60.75;99086.06;3132086;28;19932;-63
2022/06/21 04:06:13;;;;;;;;;;;;;;;18.81;61.02;99090.06;3132242;28;19978;-63
2022/06/21 04:07:47;;;;;;;;;;;;;;;18.85;61.02;99086.19;3132303;28;19972;-63
2022/06/21 04:09:22;;;;;;;;;;;;;;;18.93;60.78;99090.75;3134566;28;19991;-63
2022/06/21 04:10:57;;;;;;;;;;;;;;;18.98;60.02;99083.28;3134249;28;19924;-63
2022/06/21 04:12:31;;;;;;;;;;;;;;;19.02;59.67;99088.16;3134331;28;20321;-63
2022/06/21 04:14:07;;;;;;;;;;;;;;;19.09;59.33;99085.75;3134786;28;19940;-64
2022/06/21 04:15:41;;;;;;;;;;;;;;;19.13;59.34;99092.41;3131520;28;19987;-64
2022/06/21 04:17:15;;;;;;;;;;;;;;;19.17;59.12;99099.09;3134318;28;20028;-64
2022/06/21 04:18:48;;;;;;;;;;;;;;;19.22;58.97;99088.94;3134386;28;19974;-64
2022/06/21 04:20:23;;;;;;;;;;;;;;;19.26;58.96;99089.50;3134159;28;20268;-64
2022/06/21 04:21:59;;;;;;;;;;;;;;;19.30;58.63;99090.88;3134015;28;19921;-64
2022/06/21 04:23:33;;;;;;;;;;;;;;;19.34;58.42;99094.88;3134313;28;19921;-64
2022/06/21 04:25:11;;;;;;;;;;;;;;;19.37;58.35;99096.41;3134253;28;20409;-64
2022/06/21 04:26:46;;;;;;;;;;;;;;;19.39;58.11;99089.19;3128172;28;19956;-64
2022/06/21 04:28:21;;;;;;;;;;;;;;;19.44;57.89;99092.22;3134058;28;19928;-64
2022/06/21 04:29:55;;;;;;;;;;;;;;;19.48;57.99;99091.78;3134347;28;20726;-64
2022/06/21 04:31:27;;;;;;;;;;;;;;;19.50;57.70;99087.22;3134191;28;19970;-64
2022/06/21 04:33:03;;;;;;;;;;;;;;;19.51;57.34;99090.69;3134178;28;19929;-64
2022/06/21 04:34:37;;;;;;;;;;;;;;;19.51;57.34;99095.97;3128857;28;20329;-64
2022/06/21 04:36:11;;;;;;;;;;;;;;;19.53;56.96;99094.84;3133823;28;19924;-65
2022/06/21 04:37:47;;;;;;;;;;;;;;;19.58;57.13;99094.44;3134147;28;20003;-63
2022/06/21 04:39:23;;;;;;;;;;;;;;;19.59;56.94;99088.16;3133827;28;20316;-63
2022/06/21 04:40:58;;;;;;;;;;;;;;;19.64;56.91;99090.34;3132474;28;19921;-64
2022/06/21 04:42:33;;;;;;;;;;;;;;;19.67;56.74;99092.72;3134089;28;19920;-64
2022/06/21 04:44:07;;;;;;;;;;;;;;;19.69;56.59;99088.97;3134532;28;20011;-63
2022/06/21 04:45:39;;;;;;;;;;;;;;;19.73;56.66;99081.63;3133994;28;20350;-63
2022/06/21 04:47:13;;;;;;;;;;;;;;;19.78;56.65;99084.63;3134156;28;19920;-63
2022/06/21 04:48:49;;;;;;;;;;;;;;;19.80;56.29;99080.03;3134334;28;19920;-63
2022/06/21 04:50:24;;;;;;;;;;;;;;;19.82;56.36;99074.59;3136705;28;20320;-63
2022/06/21 04:52:00;;;;;;;;;;;;;;;19.87;56.21;99067.06;3134106;28;19928;-63
2022/06/21 04:53:37;;;;;;;;;;;;;;;19.91;56.15;99068.47;3133640;28;19921;-63
2022/06/21 04:55:13;;;;;;;;;;;;;;;19.94;56.19;99068.16;3132319;28;19924;-63
2022/06/21 04:56:50;;;;;;;;;;;;;;;19.98;55.82;99072.16;3129494;28;20368;-63
2022/06/21 04:58:20;;;;;;;;;;;;;;;20.02;55.80;99076.16;3128647;28;20367;-63
2022/06/21 04:59:53;;;;;;;;;;;;;;;20.07;55.84;99068.63;3133853;28;19921;-63
2022/06/21 05:01:32;;;;;;;;;;;;;;;20.07;55.73;99063.34;3133813;28;19920;-64
2022/06/21 05:03:09;;;;;;;;;;;;;;;20.18;55.46;99076.38;3133885;28;19932;-63
2022/06/21 05:04:41;;;;;;;;;;;;;;;20.25;55.63;99081.06;3133957;28;20270;-63
2022/06/21 05:06:14;;;;;;;;;;;;;;;20.31;55.53;99083.94;3134140;28;19928;-63
2022/06/21 05:07:48;;;;;;;;;;;;;;;20.37;55.36;99088.63;3133636;28;19921;-63
2022/06/21 05:09:22;;;;;;;;;;;;;;;20.42;55.51;99093.47;3133530;28;19920;-63
2022/06/21 05:10:55;;;;;;;;;;;;;;;20.49;55.36;99099.00;3133616;28;20345;-64
2022/06/21 05:12:30;;;;;;;;;;;;;;;20.53;55.18;99090.66;3133681;28;20385;-63
2022/06/21 05:14:02;;;;;;;;;;;;;;;20.57;55.58;99085.88;3133559;28;19944;-64
2022/06/21 05:15:36;;;;;;;;;;;;;;;20.60;55.48;99089.06;3129990;28;19943;-64
2022/06/21 05:17:11;;;;;;;;;;;;;;;20.61;55.38;99098.66;3133654;28;19920;-63
2022/06/21 05:18:44;;;;;;;;;;;;;;;20.61;55.25;99097.81;3133503;28;19933;-63
2022/06/21 05:20:18;;;;;;;;;;;;;;;20.61;55.37;99084.59;3132563;28;19944;-64
2022/06/21 05:21:51;;;;;;;;;;;;;;;20.63;55.16;99094.03;3133526;28;19921;-64
2022/06/21 05:23:25;;;;;;;;;;;;;;;20.71;55.28;99085.38;3133029;28;20114;-64
2022/06/21 05:24:58;;;;;;;;;;;;;;;20.78;55.03;99082.94;3133593;28;20326;-64
2022/06/21 05:26:33;;;;;;;;;;;;;;;20.82;55.22;99081.63;3131220;28;19921;-63
2022/06/21 05:28:10;;;;;;;;;;;;;;;20.88;55.12;99079.25;3133568;28;19928;-64
2022/06/21 05:29:45;;;;;;;;;;;;;;;20.94;55.06;99083.09;3132964;28;20386;-64
2022/06/21 05:31:20;;;;;;;;;;;;;;;21.00;55.10;99077.19;3132641;28;19921;-63
2022/06/21 05:32:55;;;;;;;;;;;;;;;21.06;55.22;99087.16;3133784;28;19920;-62
2022/06/21 05:34:28;;;;;;;;;;;;;;;21.12;55.23;99089.19;3133484;28;20322;-63
2022/06/21 05:36:00;;;;;;;;;;;;;;;21.20;54.80;99075.16;3133651;28;19974;-62
2022/06/21 05:37:33;;;;;;;;;;;;;;;21.28;54.82;99085.00;3133528;28;19921;-63
2022/06/21 05:39:14;;;;;;;;;;;;;;;21.33;54.66;99080.88;3133518;28;19928;-63
2022/06/21 05:40:49;;;;;;;;;;;;;;;21.44;54.56;99082.47;3133339;28;19920;-61
2022/06/21 05:42:23;;;;;;;;;;;;;;;21.51;54.54;99083.50;3133338;28;19928;-63
2022/06/21 05:43:55;;;;;;;;;;;;;;;21.60;54.19;99080.91;3133880;28;19921;-62
2022/06/21 05:45:28;;;;;;;;;;;;;;;21.65;53.89;99092.72;3133070;28;19922;-62
2022/06/21 05:47:03;;;;;;;;;;;;;;;21.74;53.84;99090.91;3132980;28;20436;-62
2022/06/21 05:48:36;;;;;;;;;;;;;;;21.82;53.65;99088.28;3131136;28;19925;-65
2022/06/21 05:50:09;;;;;;;;;;;;;;;21.91;53.91;99090.00;3136057;28;20258;-65
2022/06/21 05:51:41;;;;;;;;;;;;;;;21.97;53.64;99088.53;3133164;28;19927;-63
2022/06/21 05:53:14;;;;;;;;;;;;;;;22.00;53.38;99083.72;3133175;28;20437;-63
2022/06/21 05:54:50;;;;;;;;;;;;;;;22.06;53.23;99084.91;3133317;28;19921;-62
2022/06/21 05:56:26;;;;;;;;;;;;;;;22.12;53.16;99081.63;3133857;28;19921;-62
2022/06/21 05:58:00;;;;;;;;;;;;;;;22.13;53.01;99075.34;3133891;28;19920;-62
2022/06/21 05:59:31;;;;;;;;;;;;;;;22.26;52.80;99070.44;3133546;28;20382;-61
2022/06/21 06:01:08;;;;;;;;;;;;;;;22.35;52.57;99070.44;3133421;28;19925;-62
2022/06/21 06:02:45;;;;;;;;;;;;;;;22.45;52.44;99068.47;3131012;28;19940;-62
2022/06/21 06:04:18;;;;;;;;;;;;;;;22.52;52.26;99064.19;3130151;28;19996;-63
2022/06/21 06:05:50;;;;;;;;;;;;;;;22.61;52.10;99065.84;3133231;28;19928;-62
2022/06/21 06:07:25;;;;;;;;;;;;;;;22.71;51.82;99053.25;3133048;28;19921;-60
2022/06/21 06:08:58;;;;;;;;;;;;;;;22.82;51.81;99056.59;3133584;28;19931;-61
2022/06/21 06:10:32;;;;;;;;;;;;;;;22.92;51.97;99054.56;3133087;28;19928;-62
2022/06/21 06:12:05;;;;;;;;;;;;;;;23.03;51.63;99056.94;3133056;28;19931;-59
2022/06/21 06:13:40;;;;;;;;;;;;;;;23.13;51.06;99051.44;3133211;28;19920;-59
2022/06/21 06:15:14;;;;;;;;;;;;;;;23.23;51.08;99060.06;3133261;28;19936;-60
2022/06/21 06:16:48;;;;;;;;;;;;;;;23.32;50.55;99055.56;3133121;28;19920;-60
2022/06/21 06:18:21;;;;;;;;;;;;;;;23.43;50.69;99049.91;3133218;28;20267;-60
2022/06/21 06:19:56;;;;;;;;;;;;;;;23.52;50.71;99050.72;3129009;28;19986;-61
2022/06/21 06:21:30;;;;;;;;;;;;;;;23.61;50.42;99058.47;3133169;28;19920;-61
2022/06/21 06:23:04;;;;;;;;;;;;;;;23.72;49.60;99054.66;3133280;28;19932;-64
2022/06/21 06:24:38;;;;;;;;;;;;;;;23.82;49.28;99049.97;3129620;28;19982;-65
2022/06/21 06:26:13;;;;;;;;;;;;;;;23.92;47.86;99043.59;3132383;28;19925;-65
2022/06/21 06:27:51;;;;;;;;;;;;;;;24.04;47.40;99047.53;3132361;28;19925;-64
2022/06/21 06:29:27;;;;;;;;;;;;;;;24.15;46.64;99047.13;3133025;28;20556;-63
2022/06/21 06:31:03;;;;;;;;;;;;;;;24.28;47.01;99051.88;3132819;28;19974;-65
2022/06/21 06:32:39;;;;;;;;;;;;;;;24.38;46.96;99057.81;3133017;28;19925;-63
2022/06/21 06:34:12;;;;;;;;;;;;;;;24.47;46.17;99050.66;3131013;28;19921;-63
2022/06/21 06:35:45;;;;;;;;;;;;;;;24.59;45.46;99048.41;3130661;28;19924;-64
2022/06/21 06:37:22;;;;;;;;;;;;;;;24.72;45.27;99060.09;3132908;28;19921;-63
2022/06/21 06:38:54;;;;;;;;;;;;;;;24.83;45.19;99048.19;3133344;28;19982;-64
2022/06/21 06:40:28;;;;;;;;;;;;;;;24.92;45.45;99055.09;3132368;28;19925;-64
2022/06/21 06:42:01;;;;;;;;;;;;;;;25.02;45.34;99052.19;3133199;28;19928;-64
2022/06/21 06:43:37;;;;;;;;;;;;;;;25.12;43.76;99049.28;3132524;28;19933;-64
2022/06/21 06:45:14;;;;;;;;;;;;;;;25.24;43.66;99052.38;3133223;28;19983;-68
2022/06/21 06:46:49;;;;;;;;;;;;;;;25.34;43.36;99052.91;3126771;28;20336;-67
2022/06/21 06:48:24;;;;;;;;;;;;;;;25.45;43.19;99046.31;3132676;28;19925;-67
2022/06/21 06:49:57;;;;;;;;;;;;;;;25.55;43.33;99047.69;3134428;28;19925;-67
2022/06/21 06:51:34;;;;;;;;;;;;;;;25.64;43.09;99049.25;3133212;28;20432;-68
2022/06/21 06:53:09;;;;;;;;;;;;;;;25.73;42.66;99044.63;3131970;28;19925;-67
2022/06/21 06:54:48;;;;;;;;;;;;;;;25.82;42.26;99045.41;3132381;28;19921;-67
2022/06/21 06:56:22;;;;;;;;;;;;;;;25.94;42.08;99043.09;3132532;28;19921;-67
2022/06/21 06:57:59;;;;;;;;;;;;;;;26.03;42.27;99042.81;3132942;28;19924;-66
2022/06/21 06:59:30;;;;;;;;;;;;;;;26.12;40.32;99051.53;3130216;28;19924;-67
2022/06/21 07:01:04;;;;;;;;;;;;;;;26.20;40.70;99040.72;3132397;28;19920;-67
2022/06/21 07:02:38;;;;;;;;;;;;;;;26.29;40.53;99041.44;3132509;28;20008;-67
2022/06/21 07:04:12;;;;;;;;;;;;;;;26.36;40.53;99046.88;3132548;28;19978;-68
2022/06/21 07:05:47;;;;;;;;;;;;;;;26.44;40.75;99044.06;3132761;28;20040;-67
2022/06/21 07:07:22;;;;;;;;;;;;;;;26.50;40.23;99044.16;3128231;28;19925;-67
2022/06/21 07:08:56;;;;;;;;;;;;;;;26.56;39.64;99039.88;3133092;28;19921;-67
2022/06/21 07:10:28;;;;;;;;;;;;;;;26.64;39.38;99045.09;3132697;28;19921;-67
2022/06/21 07:12:03;;;;;;;;;;;;;;;26.68;39.36;99043.72;3132869;28;19925;-67
2022/06/21 07:13:37;;;;;;;;;;;;;;;26.76;39.15;99048.91;3133138;28;19928;-67
2022/06/21 07:15:10;;;;;;;;;;;;;;;26.82;39.35;99044.66;3132525;28;19931;-67
2022/06/21 07:16:43;;;;;;;;;;;;;;;26.90;39.40;99044.53;3132799;28;19967;-67
2022/06/21 07:18:16;;;;;;;;;;;;;;;26.98;39.39;99041.72;3132957;28;20263;-68
2022/06/21 07:19:47;;;;;;;;;;;;;;;27.05;38.69;99040.94;3132968;28;19943;-68
2022/06/21 07:21:20;;;;;;;;;;;;;;;27.12;39.04;99042.63;3132755;28;20455;-67
2022/06/21 07:22:55;;;;;;;;;;;;;;;27.18;39.23;99030.34;3129906;28;19963;-67
2022/06/21 07:24:28;;;;;;;;;;;;;;;27.30;38.56;99041.34;3132316;28;19920;-67
2022/06/21 07:26:02;;;;;;;;;;;;;;;27.37;38.76;99032.34;3133143;28;19921;-66
2022/06/21 07:27:36;;;;;;;;;;;;;;;27.42;37.71;99037.13;3131136;28;20002;-67
2022/06/21 07:29:14;;;;;;;;;;;;;;;27.50;37.58;99030.78;3132726;28;20322;-67
2022/06/21 07:30:47;;;;;;;;;;;;;;;27.60;37.86;99033.94;3132614;28;19929;-67
2022/06/21 07:32:21;;;;;;;;;;;;;;;27.67;37.80;99030.25;3132911;28;19925;-67
2022/06/21 07:33:58;;;;;;;;;;;;;;;27.77;37.83;99026.38;3132775;28;19928;-66
2022/06/21 07:35:33;;;;;;;;;;;;;;;27.84;37.68;99020.06;3132631;28;19944;-66
2022/06/21 07:37:06;;;;;;;;;;;;;;;27.95;37.71;99026.69;3132854;28;20047;-67
2022/06/21 07:38:40;;;;;;;;;;;;;;;28.03;36.94;99023.81;3127553;28;19925;-73
2022/06/21 07:40:15;;;;;;;;;;;;;;;28.10;36.67;99024.69;3132503;28;19982;-68
2022/06/21 07:41:49;;;;;;;;;;;;;;;28.20;36.45;99013.59;3131131;28;19955;-66
2022/06/21 07:43:24;;;;;;;;;;;;;;;28.29;36.22;99019.59;3133238;28;19932;-68
2022/06/21 07:44:59;;;;;;;;;;;;;;;28.36;36.00;99015.88;3135094;28;19978;-73
2022/06/21 07:46:32;;;;;;;;;;;;;;;28.44;35.31;99011.41;3135097;28;19924;-72
2022/06/21 07:48:07;;;;;;;;;;;;;;;28.50;35.46;99016.75;3134739;28;19925;-71
2022/06/21 07:49:40;;;;;;;;;;;;;;;28.58;35.55;99015.75;3134962;28;19978;-67
2022/06/21 07:51:15;;;;;;;;;;;;;;;28.68;35.33;99018.00;3131847;28;20482;-71
2022/06/21 07:52:50;;;;;;;;;;;;;;;28.76;35.16;99020.50;3133826;28;19920;-65
2022/06/21 07:54:24;;;;;;;;;;;;;;;28.85;35.66;99016.56;3128849;28;19967;-65
2022/06/21 07:55:59;;;;;;;;;;;;;;;28.95;35.52;99019.66;3134801;28;19920;-66
2022/06/21 07:57:33;;;;;;;;;;;;;;;29.04;35.49;99022.97;3134649;28;19927;-65
2022/06/21 07:59:09;;;;;;;;;;;;;;;29.12;34.79;99017.41;3135231;28;19974;-67
2022/06/21 08:08:10;;;;;;;;;;;;;;;29.61;34.37;99032.16;3128930;28;19925;-63
2022/06/21 08:09:46;;;;;;;;;;;;;;;29.69;33.72;99023.06;3128584;28;19925;-64
2022/06/21 08:11:20;;;;;;;;;;;;;;;29.76;33.53;99033.78;3134183;28;19943;-64
2022/06/21 08:12:52;;;;;;;;;;;;;;;29.81;33.65;99024.06;3134746;28;20007;-62
2022/06/21 08:14:23;;;;;;;;;;;;;;;29.88;34.00;99024.88;3134380;28;19920;-61
2022/06/21 08:15:59;;;;;;;;;;;;;;;29.97;34.03;99025.44;3134546;28;20062;-61
2022/06/21 08:17:34;;;;;;;;;;;;;;;30.04;33.57;99031.59;3134613;28;19925;-64
2022/06/21 08:19:12;;;;;;;;;;;;;;;30.14;34.18;99026.59;3134514;28;20421;-64